sensor_id;sensor_type;location;lat;lon;timestamp;P1;durP1;ratioP1;P2;durP2;ratioP2
56457;SDS011;42360;42.918;12.366;2023-08-24T00:01:15;8.50;;;7.05;;
56457;SDS011;42360;42.918;12.366;2023-08-24T00:03:41;8.65;;;6.78;;
56457;SDS011;42360;42.918;12.366;2023-08-24T00:06:13;8.18;;;6.35;;
56457;SDS011;42360;42.918;12.366;2023-08-24T00:08:39;7.85;;;7.15;;
56457;SDS011;42360;42.918;12.366;2023-08-24T00:11:05;7.63;;;6.15;;
56457;SDS011;42360;42.918;12.366;2023-08-24T00:13:31;6.30;;;5.70;;
56457;SDS011;42360;42.918;12.366;2023-08-24T00:15:57;6.55;;;5.88;;
56457;SDS011;42360;42.918;12.366;2023-08-24T00:18:22;7.53;;;5.70;;
56457;SDS011;42360;42.918;12.366;2023-08-24T00:20:49;7.63;;;5.97;;
56457;SDS011;42360;42.918;12.366;2023-08-24T00:23:15;6.35;;;5.57;;
56457;SDS011;42360;42.918;12.366;2023-08-24T00:25:41;9.15;;;5.88;;
56457;SDS011;42360;42.918;12.366;2023-08-24T00:28:06;7.20;;;6.03;;
56457;SDS011;42360;42.918;12.366;2023-08-24T00:30:32;6.97;;;5.40;;
56457;SDS011;42360;42.918;12.366;2023-08-24T00:32:57;6.20;;;5.60;;
56457;SDS011;42360;42.918;12.366;2023-08-24T00:35:23;8.80;;;6.20;;
56457;SDS011;42360;42.918;12.366;2023-08-24T00:37:48;7.10;;;5.85;;
56457;SDS011;42360;42.918;12.366;2023-08-24T00:40:15;6.97;;;5.85;;
56457;SDS011;42360;42.918;12.366;2023-08-24T00:42:42;6.32;;;5.72;;
56457;SDS011;42360;42.918;12.366;2023-08-24T00:45:09;8.57;;;5.85;;
56457;SDS011;42360;42.918;12.366;2023-08-24T00:47:39;8.13;;;6.25;;
56457;SDS011;42360;42.918;12.366;2023-08-24T00:50:06;7.55;;;6.28;;
56457;SDS011;42360;42.918;12.366;2023-08-24T00:52:33;10.73;;;7.47;;
56457;SDS011;42360;42.918;12.366;2023-08-24T00:54:59;8.63;;;7.03;;
56457;SDS011;42360;42.918;12.366;2023-08-24T00:57:26;10.85;;;7.35;;
56457;SDS011;42360;42.918;12.366;2023-08-24T00:59:52;11.10;;;7.55;;
56457;SDS011;42360;42.918;12.366;2023-08-24T01:02:17;9.25;;;7.40;;
56457;SDS011;42360;42.918;12.366;2023-08-24T01:04:43;9.48;;;7.13;;
56457;SDS011;42360;42.918;12.366;2023-08-24T01:07:11;9.55;;;7.50;;
56457;SDS011;42360;42.918;12.366;2023-08-24T01:09:38;8.88;;;6.57;;
56457;SDS011;42360;42.918;12.366;2023-08-24T01:12:14;7.80;;;7.00;;
56457;SDS011;42360;42.918;12.366;2023-08-24T01:14:47;8.10;;;6.93;;
56457;SDS011;42360;42.918;12.366;2023-08-24T01:17:18;8.00;;;7.07;;
56457;SDS011;42360;42.918;12.366;2023-08-24T01:19:47;7.47;;;6.78;;
56457;SDS011;42360;42.918;12.366;2023-08-24T01:24:53;7.43;;;6.72;;
56457;SDS011;42360;42.918;12.366;2023-08-24T01:27:22;11.50;;;7.18;;
56457;SDS011;42360;42.918;12.366;2023-08-24T01:29:48;8.35;;;7.38;;
56457;SDS011;42360;42.918;12.366;2023-08-24T01:32:15;8.15;;;7.22;;
56457;SDS011;42360;42.918;12.366;2023-08-24T01:34:40;7.43;;;6.70;;
56457;SDS011;42360;42.918;12.366;2023-08-24T01:37:06;7.70;;;6.90;;
56457;SDS011;42360;42.918;12.366;2023-08-24T01:39:38;7.60;;;6.88;;
56457;SDS011;42360;42.918;12.366;2023-08-24T01:42:10;9.20;;;7.32;;
56457;SDS011;42360;42.918;12.366;2023-08-24T01:44:40;7.57;;;6.80;;
56457;SDS011;42360;42.918;12.366;2023-08-24T01:47:07;8.57;;;7.22;;
56457;SDS011;42360;42.918;12.366;2023-08-24T01:49:36;8.00;;;6.82;;
56457;SDS011;42360;42.918;12.366;2023-08-24T01:52:02;8.85;;;6.82;;
56457;SDS011;42360;42.918;12.366;2023-08-24T01:54:29;7.82;;;6.97;;
56457;SDS011;42360;42.918;12.366;2023-08-24T01:56:56;7.93;;;6.80;;
56457;SDS011;42360;42.918;12.366;2023-08-24T01:59:21;9.77;;;6.43;;
56457;SDS011;42360;42.918;12.366;2023-08-24T02:01:47;7.00;;;6.30;;
56457;SDS011;42360;42.918;12.366;2023-08-24T02:04:12;7.45;;;6.28;;
56457;SDS011;42360;42.918;12.366;2023-08-24T02:06:38;8.65;;;5.93;;
56457;SDS011;42360;42.918;12.366;2023-08-24T02:09:04;7.57;;;6.43;;
56457;SDS011;42360;42.918;12.366;2023-08-24T02:11:29;6.55;;;5.93;;
56457;SDS011;42360;42.918;12.366;2023-08-24T02:13:55;8.10;;;6.43;;
56457;SDS011;42360;42.918;12.366;2023-08-24T02:16:21;7.18;;;6.25;;
56457;SDS011;42360;42.918;12.366;2023-08-24T02:18:46;8.85;;;6.60;;
56457;SDS011;42360;42.918;12.366;2023-08-24T02:21:12;8.18;;;6.90;;
56457;SDS011;42360;42.918;12.366;2023-08-24T02:23:39;8.10;;;7.00;;
56457;SDS011;42360;42.918;12.366;2023-08-24T02:26:05;10.07;;;7.85;;
56457;SDS011;42360;42.918;12.366;2023-08-24T02:28:30;9.45;;;7.10;;
56457;SDS011;42360;42.918;12.366;2023-08-24T02:31:00;8.38;;;7.15;;
56457;SDS011;42360;42.918;12.366;2023-08-24T02:33:27;11.00;;;6.97;;
56457;SDS011;42360;42.918;12.366;2023-08-24T02:35:52;8.65;;;7.13;;
56457;SDS011;42360;42.918;12.366;2023-08-24T02:38:18;6.88;;;6.18;;
56457;SDS011;42360;42.918;12.366;2023-08-24T02:40:43;8.07;;;7.07;;
56457;SDS011;42360;42.918;12.366;2023-08-24T02:43:09;7.88;;;6.55;;
56457;SDS011;42360;42.918;12.366;2023-08-24T02:45:34;7.63;;;6.93;;
56457;SDS011;42360;42.918;12.366;2023-08-24T02:48:00;8.48;;;6.55;;
56457;SDS011;42360;42.918;12.366;2023-08-24T02:50:26;9.77;;;7.20;;
56457;SDS011;42360;42.918;12.366;2023-08-24T02:52:51;8.63;;;6.93;;
56457;SDS011;42360;42.918;12.366;2023-08-24T02:55:17;6.57;;;5.60;;
56457;SDS011;42360;42.918;12.366;2023-08-24T02:57:43;6.68;;;6.00;;
56457;SDS011;42360;42.918;12.366;2023-08-24T03:00:08;7.22;;;6.53;;
56457;SDS011;42360;42.918;12.366;2023-08-24T03:02:35;9.32;;;6.70;;
56457;SDS011;42360;42.918;12.366;2023-08-24T03:05:01;6.40;;;5.80;;
56457;SDS011;42360;42.918;12.366;2023-08-24T03:07:27;10.05;;;7.20;;
56457;SDS011;42360;42.918;12.366;2023-08-24T03:09:53;7.43;;;6.60;;
56457;SDS011;42360;42.918;12.366;2023-08-24T03:12:18;8.15;;;6.15;;
56457;SDS011;42360;42.918;12.366;2023-08-24T03:14:44;8.20;;;6.07;;
56457;SDS011;42360;42.918;12.366;2023-08-24T03:17:09;8.85;;;6.57;;
56457;SDS011;42360;42.918;12.366;2023-08-24T03:19:34;6.38;;;5.78;;
56457;SDS011;42360;42.918;12.366;2023-08-24T03:22:00;6.88;;;6.18;;
56457;SDS011;42360;42.918;12.366;2023-08-24T03:24:25;7.45;;;6.43;;
56457;SDS011;42360;42.918;12.366;2023-08-24T03:26:51;9.30;;;6.15;;
56457;SDS011;42360;42.918;12.366;2023-08-24T03:29:16;7.85;;;6.20;;
56457;SDS011;42360;42.918;12.366;2023-08-24T03:31:42;7.88;;;5.80;;
56457;SDS011;42360;42.918;12.366;2023-08-24T03:34:07;8.18;;;6.65;;
56457;SDS011;42360;42.918;12.366;2023-08-24T03:36:33;7.40;;;6.70;;
56457;SDS011;42360;42.918;12.366;2023-08-24T03:38:58;8.60;;;6.60;;
56457;SDS011;42360;42.918;12.366;2023-08-24T03:41:24;7.20;;;6.35;;
56457;SDS011;42360;42.918;12.366;2023-08-24T03:43:49;7.28;;;6.10;;
56457;SDS011;42360;42.918;12.366;2023-08-24T03:46:15;6.90;;;5.78;;
56457;SDS011;42360;42.918;12.366;2023-08-24T03:48:40;6.90;;;6.07;;
56457;SDS011;42360;42.918;12.366;2023-08-24T03:51:06;7.03;;;6.00;;
56457;SDS011;42360;42.918;12.366;2023-08-24T03:53:31;6.35;;;5.38;;
56457;SDS011;42360;42.918;12.366;2023-08-24T03:55:57;6.85;;;6.25;;
56457;SDS011;42360;42.918;12.366;2023-08-24T03:58:23;6.68;;;6.00;;
56457;SDS011;42360;42.918;12.366;2023-08-24T04:00:49;7.07;;;6.32;;
56457;SDS011;42360;42.918;12.366;2023-08-24T04:03:15;7.70;;;6.90;;
56457;SDS011;42360;42.918;12.366;2023-08-24T04:05:41;6.70;;;6.00;;
56457;SDS011;42360;42.918;12.366;2023-08-24T04:08:06;6.68;;;6.03;;
56457;SDS011;42360;42.918;12.366;2023-08-24T04:10:32;6.07;;;5.57;;
56457;SDS011;42360;42.918;12.366;2023-08-24T04:12:58;8.05;;;6.38;;
56457;SDS011;42360;42.918;12.366;2023-08-24T04:15:24;6.65;;;5.78;;
56457;SDS011;42360;42.918;12.366;2023-08-24T04:17:49;7.03;;;6.03;;
56457;SDS011;42360;42.918;12.366;2023-08-24T04:20:15;7.55;;;6.60;;
56457;SDS011;42360;42.918;12.366;2023-08-24T04:22:41;8.23;;;6.55;;
56457;SDS011;42360;42.918;12.366;2023-08-24T04:25:07;7.72;;;6.95;;
56457;SDS011;42360;42.918;12.366;2023-08-24T04:27:33;8.05;;;7.25;;
56457;SDS011;42360;42.918;12.366;2023-08-24T04:29:58;8.68;;;7.70;;
56457;SDS011;42360;42.918;12.366;2023-08-24T04:32:24;8.50;;;7.68;;
56457;SDS011;42360;42.918;12.366;2023-08-24T04:34:50;11.02;;;8.40;;
56457;SDS011;42360;42.918;12.366;2023-08-24T04:37:15;10.98;;;7.65;;
56457;SDS011;42360;42.918;12.366;2023-08-24T04:39:40;10.32;;;7.60;;
56457;SDS011;42360;42.918;12.366;2023-08-24T04:42:06;10.25;;;7.47;;
56457;SDS011;42360;42.918;12.366;2023-08-24T04:44:32;12.50;;;7.72;;
56457;SDS011;42360;42.918;12.366;2023-08-24T04:46:58;9.57;;;7.88;;
56457;SDS011;42360;42.918;12.366;2023-08-24T04:49:23;9.45;;;7.45;;
56457;SDS011;42360;42.918;12.366;2023-08-24T04:51:49;8.88;;;7.55;;
56457;SDS011;42360;42.918;12.366;2023-08-24T04:54:14;8.02;;;7.22;;
56457;SDS011;42360;42.918;12.366;2023-08-24T04:56:40;9.15;;;7.43;;
56457;SDS011;42360;42.918;12.366;2023-08-24T04:59:05;10.23;;;7.00;;
56457;SDS011;42360;42.918;12.366;2023-08-24T05:01:33;11.07;;;7.75;;
56457;SDS011;42360;42.918;12.366;2023-08-24T05:03:59;7.63;;;6.78;;
56457;SDS011;42360;42.918;12.366;2023-08-24T05:06:24;8.43;;;6.95;;
56457;SDS011;42360;42.918;12.366;2023-08-24T05:08:49;9.05;;;7.45;;
56457;SDS011;42360;42.918;12.366;2023-08-24T05:11:19;9.45;;;7.20;;
56457;SDS011;42360;42.918;12.366;2023-08-24T05:13:46;7.18;;;6.40;;
56457;SDS011;42360;42.918;12.366;2023-08-24T05:16:12;7.13;;;5.85;;
56457;SDS011;42360;42.918;12.366;2023-08-24T05:18:38;7.63;;;6.90;;
56457;SDS011;42360;42.918;12.366;2023-08-24T05:21:04;10.65;;;6.38;;
56457;SDS011;42360;42.918;12.366;2023-08-24T05:23:30;7.57;;;5.55;;
56457;SDS011;42360;42.918;12.366;2023-08-24T05:25:57;11.82;;;6.00;;
56457;SDS011;42360;42.918;12.366;2023-08-24T05:28:23;10.63;;;6.00;;
56457;SDS011;42360;42.918;12.366;2023-08-24T05:30:52;9.07;;;6.88;;
56457;SDS011;42360;42.918;12.366;2023-08-24T05:33:19;8.25;;;5.82;;
56457;SDS011;42360;42.918;12.366;2023-08-24T05:35:45;8.10;;;5.65;;
56457;SDS011;42360;42.918;12.366;2023-08-24T05:38:14;8.05;;;5.55;;
56457;SDS011;42360;42.918;12.366;2023-08-24T05:40:42;7.55;;;6.75;;
56457;SDS011;42360;42.918;12.366;2023-08-24T05:43:08;6.90;;;6.20;;
56457;SDS011;42360;42.918;12.366;2023-08-24T05:45:40;12.30;;;6.70;;
56457;SDS011;42360;42.918;12.366;2023-08-24T05:48:06;8.57;;;6.90;;
56457;SDS011;42360;42.918;12.366;2023-08-24T05:50:31;10.43;;;6.43;;
56457;SDS011;42360;42.918;12.366;2023-08-24T05:52:57;11.05;;;6.88;;
56457;SDS011;42360;42.918;12.366;2023-08-24T05:55:22;10.38;;;6.50;;
56457;SDS011;42360;42.918;12.366;2023-08-24T05:57:48;12.13;;;7.00;;
56457;SDS011;42360;42.918;12.366;2023-08-24T06:00:13;8.65;;;7.07;;
56457;SDS011;42360;42.918;12.366;2023-08-24T06:02:39;8.55;;;6.10;;
56457;SDS011;42360;42.918;12.366;2023-08-24T06:05:05;8.20;;;6.13;;
56457;SDS011;42360;42.918;12.366;2023-08-24T06:07:32;10.35;;;7.50;;
56457;SDS011;42360;42.918;12.366;2023-08-24T06:09:58;10.55;;;6.50;;
56457;SDS011;42360;42.918;12.366;2023-08-24T06:12:24;7.10;;;6.10;;
56457;SDS011;42360;42.918;12.366;2023-08-24T06:14:49;8.27;;;6.95;;
56457;SDS011;42360;42.918;12.366;2023-08-24T06:17:15;8.75;;;7.03;;
56457;SDS011;42360;42.918;12.366;2023-08-24T06:19:40;8.85;;;7.65;;
56457;SDS011;42360;42.918;12.366;2023-08-24T06:22:06;9.90;;;7.82;;
56457;SDS011;42360;42.918;12.366;2023-08-24T06:24:32;9.77;;;7.72;;
56457;SDS011;42360;42.918;12.366;2023-08-24T06:26:57;10.80;;;7.28;;
56457;SDS011;42360;42.918;12.366;2023-08-24T06:29:23;9.32;;;7.30;;
56457;SDS011;42360;42.918;12.366;2023-08-24T06:31:48;11.10;;;8.13;;
56457;SDS011;42360;42.918;12.366;2023-08-24T06:34:14;12.05;;;8.43;;
56457;SDS011;42360;42.918;12.366;2023-08-24T06:36:39;9.77;;;8.82;;
56457;SDS011;42360;42.918;12.366;2023-08-24T06:39:05;9.52;;;7.88;;
56457;SDS011;42360;42.918;12.366;2023-08-24T06:41:34;8.75;;;7.90;;
56457;SDS011;42360;42.918;12.366;2023-08-24T06:44:01;12.50;;;7.88;;
56457;SDS011;42360;42.918;12.366;2023-08-24T06:46:26;10.50;;;8.00;;
56457;SDS011;42360;42.918;12.366;2023-08-24T06:48:52;9.90;;;6.90;;
56457;SDS011;42360;42.918;12.366;2023-08-24T06:51:17;8.48;;;7.07;;
56457;SDS011;42360;42.918;12.366;2023-08-24T06:53:43;7.60;;;6.30;;
56457;SDS011;42360;42.918;12.366;2023-08-24T06:56:08;8.32;;;6.55;;
56457;SDS011;42360;42.918;12.366;2023-08-24T06:58:34;7.03;;;6.28;;
56457;SDS011;42360;42.918;12.366;2023-08-24T07:01:00;10.18;;;6.40;;
56457;SDS011;42360;42.918;12.366;2023-08-24T07:03:26;7.63;;;6.40;;
56457;SDS011;42360;42.918;12.366;2023-08-24T07:05:51;7.03;;;6.00;;
56457;SDS011;42360;42.918;12.366;2023-08-24T07:08:17;8.02;;;6.07;;
56457;SDS011;42360;42.918;12.366;2023-08-24T07:10:43;7.15;;;6.28;;
56457;SDS011;42360;42.918;12.366;2023-08-24T07:13:09;6.38;;;5.70;;
56457;SDS011;42360;42.918;12.366;2023-08-24T07:15:35;6.10;;;4.97;;
56457;SDS011;42360;42.918;12.366;2023-08-24T07:18:03;6.47;;;5.00;;
56457;SDS011;42360;42.918;12.366;2023-08-24T07:20:32;5.03;;;4.53;;
56457;SDS011;42360;42.918;12.366;2023-08-24T07:22:58;7.28;;;5.07;;
56457;SDS011;42360;42.918;12.366;2023-08-24T07:25:23;7.82;;;5.43;;
56457;SDS011;42360;42.918;12.366;2023-08-24T07:27:53;7.88;;;6.15;;
56457;SDS011;42360;42.918;12.366;2023-08-24T07:30:23;7.60;;;5.60;;
56457;SDS011;42360;42.918;12.366;2023-08-24T07:32:52;8.65;;;5.53;;
56457;SDS011;42360;42.918;12.366;2023-08-24T07:35:18;8.38;;;5.75;;
56457;SDS011;42360;42.918;12.366;2023-08-24T07:37:45;8.18;;;7.40;;
56457;SDS011;42360;42.918;12.366;2023-08-24T07:40:13;8.48;;;6.40;;
56457;SDS011;42360;42.918;12.366;2023-08-24T07:42:45;8.38;;;6.07;;
56457;SDS011;42360;42.918;12.366;2023-08-24T07:45:12;9.80;;;5.95;;
56457;SDS011;42360;42.918;12.366;2023-08-24T07:47:37;15.82;;;6.35;;
56457;SDS011;42360;42.918;12.366;2023-08-24T07:50:03;8.98;;;6.43;;
56457;SDS011;42360;42.918;12.366;2023-08-24T07:52:29;12.05;;;5.57;;
56457;SDS011;42360;42.918;12.366;2023-08-24T07:54:54;7.05;;;5.13;;
56457;SDS011;42360;42.918;12.366;2023-08-24T07:57:26;7.75;;;5.32;;
56457;SDS011;42360;42.918;12.366;2023-08-24T07:59:52;9.63;;;5.20;;
56457;SDS011;42360;42.918;12.366;2023-08-24T08:02:17;8.80;;;5.80;;
56457;SDS011;42360;42.918;12.366;2023-08-24T08:04:43;6.88;;;5.32;;
56457;SDS011;42360;42.918;12.366;2023-08-24T08:07:09;6.65;;;6.05;;
56457;SDS011;42360;42.918;12.366;2023-08-24T08:09:35;7.40;;;5.70;;
56457;SDS011;42360;42.918;12.366;2023-08-24T08:12:02;6.53;;;5.82;;
56457;SDS011;42360;42.918;12.366;2023-08-24T08:14:28;6.05;;;5.45;;
56457;SDS011;42360;42.918;12.366;2023-08-24T08:16:54;7.88;;;6.32;;
56457;SDS011;42360;42.918;12.366;2023-08-24T08:19:20;6.85;;;6.22;;
56457;SDS011;42360;42.918;12.366;2023-08-24T08:21:46;7.82;;;6.03;;
56457;SDS011;42360;42.918;12.366;2023-08-24T08:24:12;6.93;;;6.32;;
56457;SDS011;42360;42.918;12.366;2023-08-24T08:26:38;8.52;;;5.95;;
56457;SDS011;42360;42.918;12.366;2023-08-24T08:29:03;7.68;;;6.32;;
56457;SDS011;42360;42.918;12.366;2023-08-24T08:31:28;9.00;;;6.38;;
56457;SDS011;42360;42.918;12.366;2023-08-24T08:33:54;11.10;;;6.72;;
56457;SDS011;42360;42.918;12.366;2023-08-24T08:36:19;8.00;;;6.25;;
56457;SDS011;42360;42.918;12.366;2023-08-24T08:38:45;8.38;;;6.15;;
56457;SDS011;42360;42.918;12.366;2023-08-24T08:41:10;9.40;;;6.50;;
56457;SDS011;42360;42.918;12.366;2023-08-24T08:43:37;8.90;;;6.20;;
56457;SDS011;42360;42.918;12.366;2023-08-24T08:46:03;6.97;;;6.28;;
56457;SDS011;42360;42.918;12.366;2023-08-24T08:48:30;8.60;;;6.45;;
56457;SDS011;42360;42.918;12.366;2023-08-24T08:50:57;8.25;;;6.68;;
56457;SDS011;42360;42.918;12.366;2023-08-24T08:53:23;8.80;;;6.93;;
56457;SDS011;42360;42.918;12.366;2023-08-24T08:55:52;9.10;;;6.53;;
56457;SDS011;42360;42.918;12.366;2023-08-24T09:00:47;8.98;;;6.18;;
56457;SDS011;42360;42.918;12.366;2023-08-24T09:03:14;9.65;;;6.78;;
56457;SDS011;42360;42.918;12.366;2023-08-24T09:05:42;7.85;;;6.47;;
56457;SDS011;42360;42.918;12.366;2023-08-24T09:08:08;8.35;;;6.90;;
56457;SDS011;42360;42.918;12.366;2023-08-24T09:10:34;8.02;;;6.10;;
56457;SDS011;42360;42.918;12.366;2023-08-24T09:12:59;8.80;;;7.20;;
56457;SDS011;42360;42.918;12.366;2023-08-24T09:15:28;6.72;;;6.10;;
56457;SDS011;42360;42.918;12.366;2023-08-24T09:17:59;8.40;;;6.35;;
56457;SDS011;42360;42.918;12.366;2023-08-24T09:20:27;7.60;;;6.57;;
56457;SDS011;42360;42.918;12.366;2023-08-24T09:22:54;6.95;;;6.25;;
56457;SDS011;42360;42.918;12.366;2023-08-24T09:25:22;9.90;;;6.55;;
56457;SDS011;42360;42.918;12.366;2023-08-24T09:27:55;9.30;;;6.82;;
56457;SDS011;42360;42.918;12.366;2023-08-24T09:30:31;7.85;;;6.00;;
56457;SDS011;42360;42.918;12.366;2023-08-24T09:33:03;11.48;;;7.00;;
56457;SDS011;42360;42.918;12.366;2023-08-24T09:35:33;7.00;;;6.40;;
56457;SDS011;42360;42.918;12.366;2023-08-24T09:38:00;9.55;;;7.20;;
56457;SDS011;42360;42.918;12.366;2023-08-24T09:40:26;9.32;;;6.70;;
56457;SDS011;42360;42.918;12.366;2023-08-24T09:42:51;8.40;;;7.10;;
56457;SDS011;42360;42.918;12.366;2023-08-24T09:45:17;8.57;;;6.63;;
56457;SDS011;42360;42.918;12.366;2023-08-24T09:47:49;7.55;;;6.82;;
56457;SDS011;42360;42.918;12.366;2023-08-24T09:50:15;10.67;;;6.93;;
56457;SDS011;42360;42.918;12.366;2023-08-24T09:52:40;8.30;;;7.47;;
56457;SDS011;42360;42.918;12.366;2023-08-24T09:55:07;7.18;;;6.43;;
56457;SDS011;42360;42.918;12.366;2023-08-24T09:57:36;8.82;;;7.13;;
56457;SDS011;42360;42.918;12.366;2023-08-24T10:00:06;8.27;;;7.00;;
56457;SDS011;42360;42.918;12.366;2023-08-24T10:02:50;7.95;;;6.88;;
56457;SDS011;42360;42.918;12.366;2023-08-24T10:05:23;11.18;;;7.20;;
56457;SDS011;42360;42.918;12.366;2023-08-24T10:07:51;8.40;;;6.88;;
56457;SDS011;42360;42.918;12.366;2023-08-24T10:10:19;8.52;;;7.30;;
56457;SDS011;42360;42.918;12.366;2023-08-24T10:12:47;7.72;;;7.03;;
56457;SDS011;42360;42.918;12.366;2023-08-24T10:15:15;7.70;;;7.07;;
56457;SDS011;42360;42.918;12.366;2023-08-24T10:17:43;10.27;;;7.65;;
56457;SDS011;42360;42.918;12.366;2023-08-24T10:20:09;9.20;;;7.00;;
56457;SDS011;42360;42.918;12.366;2023-08-24T10:22:36;8.32;;;6.95;;
56457;SDS011;42360;42.918;12.366;2023-08-24T10:25:03;8.52;;;6.82;;
56457;SDS011;42360;42.918;12.366;2023-08-24T10:27:29;10.93;;;7.28;;
56457;SDS011;42360;42.918;12.366;2023-08-24T10:29:55;8.85;;;7.38;;
56457;SDS011;42360;42.918;12.366;2023-08-24T10:32:22;8.05;;;7.25;;
56457;SDS011;42360;42.918;12.366;2023-08-24T10:34:49;8.80;;;7.30;;
56457;SDS011;42360;42.918;12.366;2023-08-24T10:37:15;8.55;;;7.78;;
56457;SDS011;42360;42.918;12.366;2023-08-24T10:39:44;9.15;;;8.10;;
56457;SDS011;42360;42.918;12.366;2023-08-24T10:42:11;8.20;;;7.40;;
56457;SDS011;42360;42.918;12.366;2023-08-24T10:44:38;8.05;;;7.15;;
56457;SDS011;42360;42.918;12.366;2023-08-24T10:49:41;7.25;;;6.57;;
56457;SDS011;42360;42.918;12.366;2023-08-24T10:52:21;9.23;;;7.38;;
56457;SDS011;42360;42.918;12.366;2023-08-24T10:54:50;8.90;;;7.05;;
56457;SDS011;42360;42.918;12.366;2023-08-24T10:57:17;7.38;;;6.78;;
56457;SDS011;42360;42.918;12.366;2023-08-24T11:00:10;9.15;;;7.30;;
56457;SDS011;42360;42.918;12.366;2023-08-24T11:07:57;7.85;;;7.15;;
56457;SDS011;42360;42.918;12.366;2023-08-24T11:10:25;8.77;;;7.97;;
56457;SDS011;42360;42.918;12.366;2023-08-24T11:18:14;8.45;;;6.85;;
56457;SDS011;42360;42.918;12.366;2023-08-24T11:23:30;7.63;;;6.82;;
56457;SDS011;42360;42.918;12.366;2023-08-24T11:25:56;11.38;;;6.65;;
56457;SDS011;42360;42.918;12.366;2023-08-24T11:28:24;7.03;;;6.18;;
56457;SDS011;42360;42.918;12.366;2023-08-24T11:30:50;8.75;;;6.55;;
56457;SDS011;42360;42.918;12.366;2023-08-24T11:33:29;7.03;;;6.43;;
56457;SDS011;42360;42.918;12.366;2023-08-24T11:35:59;6.65;;;6.00;;
56457;SDS011;42360;42.918;12.366;2023-08-24T11:38:25;6.80;;;5.65;;
56457;SDS011;42360;42.918;12.366;2023-08-24T11:40:59;6.15;;;5.55;;
56457;SDS011;42360;42.918;12.366;2023-08-24T11:43:25;5.95;;;5.45;;
56457;SDS011;42360;42.918;12.366;2023-08-24T11:45:54;6.45;;;5.85;;
56457;SDS011;42360;42.918;12.366;2023-08-24T11:48:23;6.72;;;6.10;;
56457;SDS011;42360;42.918;12.366;2023-08-24T11:50:50;6.07;;;5.50;;
56457;SDS011;42360;42.918;12.366;2023-08-24T11:53:16;5.72;;;5.05;;
56457;SDS011;42360;42.918;12.366;2023-08-24T11:55:42;5.80;;;5.13;;
56457;SDS011;42360;42.918;12.366;2023-08-24T11:58:17;6.75;;;6.10;;
56457;SDS011;42360;42.918;12.366;2023-08-24T12:00:43;6.00;;;5.50;;
56457;SDS011;42360;42.918;12.366;2023-08-24T12:03:09;5.93;;;5.32;;
56457;SDS011;42360;42.918;12.366;2023-08-24T12:05:35;7.50;;;6.07;;
56457;SDS011;42360;42.918;12.366;2023-08-24T12:08:02;6.35;;;5.85;;
56457;SDS011;42360;42.918;12.366;2023-08-24T12:10:28;6.03;;;5.43;;
56457;SDS011;42360;42.918;12.366;2023-08-24T12:13:00;7.55;;;5.35;;
56457;SDS011;42360;42.918;12.366;2023-08-24T12:15:28;6.93;;;6.18;;
56457;SDS011;42360;42.918;12.366;2023-08-24T12:17:53;5.97;;;5.50;;
56457;SDS011;42360;42.918;12.366;2023-08-24T12:20:19;6.10;;;5.38;;
56457;SDS011;42360;42.918;12.366;2023-08-24T12:22:52;6.10;;;5.50;;
56457;SDS011;42360;42.918;12.366;2023-08-24T12:25:18;5.97;;;5.45;;
56457;SDS011;42360;42.918;12.366;2023-08-24T12:27:46;5.95;;;5.35;;
56457;SDS011;42360;42.918;12.366;2023-08-24T12:30:12;5.25;;;4.78;;
56457;SDS011;42360;42.918;12.366;2023-08-24T12:32:45;5.13;;;4.65;;
56457;SDS011;42360;42.918;12.366;2023-08-24T12:35:11;6.78;;;5.20;;
56457;SDS011;42360;42.918;12.366;2023-08-24T12:37:39;6.18;;;4.97;;
56457;SDS011;42360;42.918;12.366;2023-08-24T12:40:06;5.75;;;5.25;;
56457;SDS011;42360;42.918;12.366;2023-08-24T12:42:32;5.20;;;4.70;;
56457;SDS011;42360;42.918;12.366;2023-08-24T12:44:58;6.03;;;5.53;;
56457;SDS011;42360;42.918;12.366;2023-08-24T12:47:23;5.47;;;5.00;;
56457;SDS011;42360;42.918;12.366;2023-08-24T12:49:49;5.70;;;5.18;;
56457;SDS011;42360;42.918;12.366;2023-08-24T12:52:19;5.50;;;5.00;;
56457;SDS011;42360;42.918;12.366;2023-08-24T12:54:45;5.50;;;5.00;;
56457;SDS011;42360;42.918;12.366;2023-08-24T12:57:10;5.60;;;5.10;;
56457;SDS011;42360;42.918;12.366;2023-08-24T12:59:36;5.45;;;4.95;;
56457;SDS011;42360;42.918;12.366;2023-08-24T13:02:01;4.75;;;4.35;;
56457;SDS011;42360;42.918;12.366;2023-08-24T13:04:27;5.00;;;4.55;;
56457;SDS011;42360;42.918;12.366;2023-08-24T13:06:57;5.03;;;4.60;;
56457;SDS011;42360;42.918;12.366;2023-08-24T13:09:23;5.38;;;4.97;;
56457;SDS011;42360;42.918;12.366;2023-08-24T13:11:49;5.07;;;4.63;;
56457;SDS011;42360;42.918;12.366;2023-08-24T13:14:14;5.50;;;5.07;;
56457;SDS011;42360;42.918;12.366;2023-08-24T13:16:40;6.20;;;5.45;;
56457;SDS011;42360;42.918;12.366;2023-08-24T13:19:05;5.43;;;4.93;;
56457;SDS011;42360;42.918;12.366;2023-08-24T13:21:31;6.00;;;5.47;;
56457;SDS011;42360;42.918;12.366;2023-08-24T13:23:56;4.90;;;4.40;;
56457;SDS011;42360;42.918;12.366;2023-08-24T13:26:22;5.43;;;4.97;;
56457;SDS011;42360;42.918;12.366;2023-08-24T13:28:51;5.45;;;4.78;;
56457;SDS011;42360;42.918;12.366;2023-08-24T13:31:17;5.03;;;4.63;;
56457;SDS011;42360;42.918;12.366;2023-08-24T13:33:44;5.70;;;4.55;;
56457;SDS011;42360;42.918;12.366;2023-08-24T13:36:10;4.65;;;4.30;;
56457;SDS011;42360;42.918;12.366;2023-08-24T13:38:35;4.63;;;4.30;;
56457;SDS011;42360;42.918;12.366;2023-08-24T13:41:01;5.82;;;5.32;;
56457;SDS011;42360;42.918;12.366;2023-08-24T13:43:28;5.70;;;5.20;;
56457;SDS011;42360;42.918;12.366;2023-08-24T13:45:54;5.35;;;4.85;;
56457;SDS011;42360;42.918;12.366;2023-08-24T13:48:19;6.25;;;5.60;;
56457;SDS011;42360;42.918;12.366;2023-08-24T13:50:51;6.43;;;5.95;;
56457;SDS011;42360;42.918;12.366;2023-08-24T13:53:19;8.48;;;5.63;;
56457;SDS011;42360;42.918;12.366;2023-08-24T13:55:45;7.00;;;6.30;;
56457;SDS011;42360;42.918;12.366;2023-08-24T13:58:10;6.43;;;5.70;;
56457;SDS011;42360;42.918;12.366;2023-08-24T14:00:36;6.32;;;5.82;;
56457;SDS011;42360;42.918;12.366;2023-08-24T14:03:02;6.00;;;5.40;;
56457;SDS011;42360;42.918;12.366;2023-08-24T14:05:28;6.07;;;5.40;;
56457;SDS011;42360;42.918;12.366;2023-08-24T14:07:54;6.82;;;6.13;;
56457;SDS011;42360;42.918;12.366;2023-08-24T14:10:19;8.18;;;6.05;;
56457;SDS011;42360;42.918;12.366;2023-08-24T14:12:45;5.97;;;5.38;;
56457;SDS011;42360;42.918;12.366;2023-08-24T14:15:11;6.85;;;6.22;;
56457;SDS011;42360;42.918;12.366;2023-08-24T14:17:36;6.60;;;6.00;;
56457;SDS011;42360;42.918;12.366;2023-08-24T14:20:02;7.03;;;6.07;;
56457;SDS011;42360;42.918;12.366;2023-08-24T14:22:29;7.07;;;6.38;;
56457;SDS011;42360;42.918;12.366;2023-08-24T14:24:55;6.70;;;6.13;;
56457;SDS011;42360;42.918;12.366;2023-08-24T14:27:20;6.47;;;5.93;;
56457;SDS011;42360;42.918;12.366;2023-08-24T14:29:46;6.45;;;5.75;;
56457;SDS011;42360;42.918;12.366;2023-08-24T14:32:14;6.32;;;5.68;;
56457;SDS011;42360;42.918;12.366;2023-08-24T14:34:40;6.60;;;5.93;;
56457;SDS011;42360;42.918;12.366;2023-08-24T14:37:05;6.60;;;5.90;;
56457;SDS011;42360;42.918;12.366;2023-08-24T14:39:30;6.13;;;5.63;;
56457;SDS011;42360;42.918;12.366;2023-08-24T14:41:56;6.03;;;5.43;;
56457;SDS011;42360;42.918;12.366;2023-08-24T14:44:21;6.53;;;5.93;;
56457;SDS011;42360;42.918;12.366;2023-08-24T14:46:47;6.20;;;5.70;;
56457;SDS011;42360;42.918;12.366;2023-08-24T14:49:12;6.50;;;5.90;;
56457;SDS011;42360;42.918;12.366;2023-08-24T14:51:43;5.82;;;5.28;;